This is the latest recevied weather packets stored in our database for station/object 9W2TBJ-4. If no packets are shown the sender has not sent any weather packets the latest 1 day(s).
| Time | Temp. | Humidity | Pressure | Rain* | Wind** | Luminosity | Snow |
|---|---|---|---|---|---|---|---|
| 1778072355 | 30.56° C | 68% | 1009.8 hPa | - | - | - | - |
| 1778071155 | 30° C | 69% | 1009.7 hPa | - | - | - | - |
| 1778069955 | 30.56° C | 67% | 1009.6 hPa | - | - | - | - |
| 1778068755 | 30.56° C | 67% | 1009.3 hPa | - | - | - | - |
| 1778066355 | 30.56° C | 67% | 1008.6 hPa | - | - | - | - |
| 1778057955 | 29.44° C | 73% | 1007.6 hPa | - | - | - | - |
| 1778056755 | 29.44° C | 73% | 1007.7 hPa | - | - | - | - |
| 1778055555 | 29.44° C | 73% | 1007.8 hPa | - | - | - | - |
| 1778054355 | 29.44° C | 72% | 1008 hPa | - | - | - | - |
| 1778053157 | 29.44° C | 72% | 1008.4 hPa | - | - | - | - |
| 1778051955 | 30° C | 70% | 1009.1 hPa | - | - | - | - |
| 1778044754 | 31.11° C | 63% | 1009.5 hPa | - | - | - | - |
| 1778043554 | 31.11° C | 64% | 1009.5 hPa | - | - | - | - |
| 1778039954 | 30.56° C | 66% | 1010.4 hPa | - | - | - | - |
| 1778038754 | 30.56° C | 66% | 1010.7 hPa | - | - | - | - |
| 1778037554 | 30.56° C | 68% | 1010.9 hPa | - | - | - | - |
| 1778036354 | 31.11° C | 67% | 1011 hPa | - | - | - | - |
| 1778035154 | 31.11° C | 68% | 1010.9 hPa | - | - | - | - |
| 1778033954 | 30.56° C | 68% | 1011 hPa | - | - | - | - |
| 1778032754 | 30.56° C | 71% | 1010.9 hPa | - | - | - | - |
| 1778031554 | 30.56° C | 69% | 1011 hPa | - | - | - | - |
| 1778030354 | 30.56° C | 69% | 1011 hPa | - | - | - | - |
| 1778019553 | 30° C | 66% | 1009.2 hPa | - | - | - | - |
| 1778018354 | 29.44° C | 67% | 1009.1 hPa | - | - | - | - |
| 1778015971 | 30° C | 66% | 1008.8 hPa | - | - | - | - |
* Rain since midnight (hover to see other rain measurements)
** Current wind speed in m/s (hover to see current wind gust speed)